sensor_id;sensor_type;location;lat;lon;timestamp;pressure;altitude;pressure_sealevel;temperature;humidity
48027;BME280;50714;49.208;5.364;2023-07-29T00:01:47;98840.50;;;19.44;100.00
48027;BME280;50714;49.208;5.364;2023-07-29T00:11:47;98829.28;;;19.46;100.00
48027;BME280;50714;49.208;5.364;2023-07-29T00:21:47;98806.28;;;19.47;100.00
48027;BME280;50714;49.208;5.364;2023-07-29T00:31:48;98803.53;;;19.47;100.00
48027;BME280;50714;49.208;5.364;2023-07-29T00:41:48;98780.03;;;19.51;100.00
48027;BME280;50714;49.208;5.364;2023-07-29T00:51:49;98787.97;;;19.52;100.00
48027;BME280;50714;49.208;5.364;2023-07-29T01:01:49;98791.25;;;19.54;100.00
48027;BME280;50714;49.208;5.364;2023-07-29T01:12:00;98784.41;;;19.57;100.00
48027;BME280;50714;49.208;5.364;2023-07-29T01:22:02;98779.75;;;19.57;100.00
48027;BME280;50714;49.208;5.364;2023-07-29T01:42:28;98766.34;;;19.56;100.00
48027;BME280;50714;49.208;5.364;2023-07-29T01:52:29;98764.16;;;19.53;100.00
48027;BME280;50714;49.208;5.364;2023-07-29T02:02:30;98753.75;;;19.45;100.00
48027;BME280;50714;49.208;5.364;2023-07-29T02:12:30;98753.47;;;19.41;100.00
48027;BME280;50714;49.208;5.364;2023-07-29T02:22:30;98754.03;;;19.38;100.00
48027;BME280;50714;49.208;5.364;2023-07-29T02:32:31;98748.31;;;19.34;100.00
48027;BME280;50714;49.208;5.364;2023-07-29T02:42:31;98749.16;;;19.35;100.00
48027;BME280;50714;49.208;5.364;2023-07-29T02:52:31;98735.75;;;19.33;100.00
48027;BME280;50714;49.208;5.364;2023-07-29T03:02:32;98728.63;;;19.32;100.00
48027;BME280;50714;49.208;5.364;2023-07-29T03:12:32;98734.38;;;19.31;100.00
48027;BME280;50714;49.208;5.364;2023-07-29T03:22:32;98735.75;;;19.33;100.00
48027;BME280;50714;49.208;5.364;2023-07-29T03:32:33;98725.34;;;19.35;100.00
48027;BME280;50714;49.208;5.364;2023-07-29T03:42:33;98731.09;;;19.34;100.00
48027;BME280;50714;49.208;5.364;2023-07-29T03:52:33;98751.63;;;19.31;100.00
48027;BME280;50714;49.208;5.364;2023-07-29T04:02:34;98744.25;;;19.22;100.00
48027;BME280;50714;49.208;5.364;2023-07-29T04:12:37;98757.09;;;19.16;100.00
48027;BME280;50714;49.208;5.364;2023-07-29T04:22:38;98763.41;;;19.17;100.00
48027;BME280;50714;49.208;5.364;2023-07-29T04:32:38;98747.53;;;19.19;100.00
48027;BME280;50714;49.208;5.364;2023-07-29T04:42:38;98783.91;;;19.19;100.00
48027;BME280;50714;49.208;5.364;2023-07-29T04:52:38;98800.06;;;19.16;100.00
48027;BME280;50714;49.208;5.364;2023-07-29T05:02:39;98795.41;;;19.16;100.00
48027;BME280;50714;49.208;5.364;2023-07-29T05:12:39;98785.03;;;19.13;100.00
48027;BME280;50714;49.208;5.364;2023-07-29T05:22:40;98808.56;;;19.04;100.00
48027;BME280;50714;49.208;5.364;2023-07-29T05:32:40;98808.56;;;19.04;100.00
48027;BME280;50714;49.208;5.364;2023-07-29T05:42:40;98810.75;;;19.12;100.00
48027;BME280;50714;49.208;5.364;2023-07-29T05:52:41;98831.78;;;19.17;100.00
48027;BME280;50714;49.208;5.364;2023-07-29T06:02:41;98841.91;;;19.21;100.00
48027;BME280;50714;49.208;5.364;2023-07-29T06:12:41;98858.03;;;19.23;100.00
48027;BME280;50714;49.208;5.364;2023-07-29T06:22:42;98860.78;;;19.18;100.00
48027;BME280;50714;49.208;5.364;2023-07-29T06:32:43;98863.25;;;19.24;100.00
48027;BME280;50714;49.208;5.364;2023-07-29T06:42:43;98864.63;;;19.32;100.00
48027;BME280;50714;49.208;5.364;2023-07-29T06:52:45;98864.31;;;19.38;100.00
48027;BME280;50714;49.208;5.364;2023-07-29T07:02:45;98876.06;;;19.39;100.00
48027;BME280;50714;49.208;5.364;2023-07-29T07:12:45;98878.56;;;19.35;100.00
48027;BME280;50714;49.208;5.364;2023-07-29T07:22:46;98880.91;;;19.93;100.00
48027;BME280;50714;49.208;5.364;2023-07-29T07:32:46;98894.22;;;20.25;100.00
48027;BME280;50714;49.208;5.364;2023-07-29T07:42:46;98885.91;;;20.45;100.00
48027;BME280;50714;49.208;5.364;2023-07-29T07:52:47;98889.44;;;20.95;100.00
48027;BME280;50714;49.208;5.364;2023-07-29T08:02:47;98894.53;;;21.06;100.00
48027;BME280;50714;49.208;5.364;2023-07-29T08:12:47;98897.63;;;21.00;100.00
48027;BME280;50714;49.208;5.364;2023-07-29T08:22:48;98902.75;;;21.11;100.00
48027;BME280;50714;49.208;5.364;2023-07-29T08:32:48;98908.38;;;21.59;100.00
48027;BME280;50714;49.208;5.364;2023-07-29T08:42:49;98915.75;;;21.64;100.00
48027;BME280;50714;49.208;5.364;2023-07-29T08:52:51;98926.44;;;21.94;100.00
48027;BME280;50714;49.208;5.364;2023-07-29T09:02:52;98924.19;;;22.01;99.35
48027;BME280;50714;49.208;5.364;2023-07-29T09:12:53;98927.22;;;22.66;98.72
48027;BME280;50714;49.208;5.364;2023-07-29T09:22:55;98930.13;;;23.31;96.20
48027;BME280;50714;49.208;5.364;2023-07-29T09:32:56;98927.72;;;24.72;88.18
48027;BME280;50714;49.208;5.364;2023-07-29T09:42:57;98953.91;;;24.33;84.49
48027;BME280;50714;49.208;5.364;2023-07-29T09:52:57;98948.09;;;28.05;87.50
48027;BME280;50714;49.208;5.364;2023-07-29T10:03:00;98961.19;;;28.42;74.49
48027;BME280;50714;49.208;5.364;2023-07-29T10:13:01;98945.19;;;30.06;70.13
48027;BME280;50714;49.208;5.364;2023-07-29T10:23:03;98954.88;;;30.69;64.54
48027;BME280;50714;49.208;5.364;2023-07-29T10:33:07;98946.13;;;32.70;63.41
48027;BME280;50714;49.208;5.364;2023-07-29T10:43:11;98945.34;;;34.46;52.37
48027;BME280;50714;49.208;5.364;2023-07-29T10:53:12;98944.03;;;32.32;52.60
48027;BME280;50714;49.208;5.364;2023-07-29T11:03:13;98941.91;;;29.92;57.79
48027;BME280;50714;49.208;5.364;2023-07-29T11:13:16;98931.41;;;30.09;46.81
48027;BME280;50714;49.208;5.364;2023-07-29T11:23:18;98934.94;;;29.32;54.80
48027;BME280;50714;49.208;5.364;2023-07-29T11:33:20;98936.38;;;27.99;54.86
48027;BME280;50714;49.208;5.364;2023-07-29T11:43:21;98923.25;;;26.75;57.72
48027;BME280;50714;49.208;5.364;2023-07-29T11:53:21;98927.34;;;27.21;55.82
48027;BME280;50714;49.208;5.364;2023-07-29T12:03:22;98911.19;;;26.63;60.03
48027;BME280;50714;49.208;5.364;2023-07-29T12:13:26;98914.78;;;28.51;54.64
48027;BME280;50714;49.208;5.364;2023-07-29T12:23:27;98912.22;;;27.10;55.89
48027;BME280;50714;49.208;5.364;2023-07-29T12:33:35;98906.41;;;26.46;56.20
48027;BME280;50714;49.208;5.364;2023-07-29T12:43:36;98908.28;;;26.20;58.66
48027;BME280;50714;49.208;5.364;2023-07-29T12:53:36;98902.84;;;25.66;59.62
48027;BME280;50714;49.208;5.364;2023-07-29T13:03:36;98895.19;;;25.63;60.35
48027;BME280;50714;49.208;5.364;2023-07-29T13:13:37;98880.22;;;25.64;61.11
48027;BME280;50714;49.208;5.364;2023-07-29T13:23:37;98882.50;;;25.40;60.43
48027;BME280;50714;49.208;5.364;2023-07-29T13:33:38;98878.44;;;25.15;61.68
48027;BME280;50714;49.208;5.364;2023-07-29T13:43:38;98879.69;;;25.09;63.14
48027;BME280;50714;49.208;5.364;2023-07-29T13:53:38;98882.94;;;25.11;62.61
48027;BME280;50714;49.208;5.364;2023-07-29T14:03:39;98876.78;;;25.14;63.52
48027;BME280;50714;49.208;5.364;2023-07-29T14:13:39;98884.44;;;24.95;63.59
48027;BME280;50714;49.208;5.364;2023-07-29T14:23:39;98874.19;;;24.59;66.28
48027;BME280;50714;49.208;5.364;2023-07-29T14:33:39;98863.56;;;24.66;66.26
48027;BME280;50714;49.208;5.364;2023-07-29T14:43:40;98859.06;;;24.57;65.92
48027;BME280;50714;49.208;5.364;2023-07-29T14:53:40;98850.13;;;24.51;65.94
48027;BME280;50714;49.208;5.364;2023-07-29T15:03:41;98857.88;;;24.49;66.00
48027;BME280;50714;49.208;5.364;2023-07-29T15:13:41;98861.09;;;24.29;66.61
48027;BME280;50714;49.208;5.364;2023-07-29T15:23:41;98856.97;;;24.12;67.47
48027;BME280;50714;49.208;5.364;2023-07-29T15:33:42;98864.25;;;23.95;67.74
48027;BME280;50714;49.208;5.364;2023-07-29T15:43:42;98853.00;;;23.91;68.07
48027;BME280;50714;49.208;5.364;2023-07-29T15:53:43;98852.41;;;23.94;68.86
48027;BME280;50714;49.208;5.364;2023-07-29T16:03:43;98831.06;;;24.00;68.89
48027;BME280;50714;49.208;5.364;2023-07-29T16:13:43;98834.84;;;24.04;67.86
48027;BME280;50714;49.208;5.364;2023-07-29T16:23:44;98835.66;;;23.77;67.67
48027;BME280;50714;49.208;5.364;2023-07-29T16:33:44;98818.81;;;23.65;68.34
48027;BME280;50714;49.208;5.364;2023-07-29T16:43:45;98807.91;;;23.60;68.25
48027;BME280;50714;49.208;5.364;2023-07-29T16:53:45;98824.03;;;23.53;68.56
48027;BME280;50714;49.208;5.364;2023-07-29T17:03:45;98817.25;;;23.45;68.50
48027;BME280;50714;49.208;5.364;2023-07-29T17:13:46;98809.88;;;23.27;69.41
48027;BME280;50714;49.208;5.364;2023-07-29T17:23:46;98826.84;;;23.15;70.42
48027;BME280;50714;49.208;5.364;2023-07-29T17:33:46;98825.03;;;23.10;70.04
48027;BME280;50714;49.208;5.364;2023-07-29T17:43:47;98832.84;;;23.03;70.50
48027;BME280;50714;49.208;5.364;2023-07-29T17:53:49;98824.53;;;23.08;71.51
48027;BME280;50714;49.208;5.364;2023-07-29T18:03:50;98847.72;;;23.02;72.43
48027;BME280;50714;49.208;5.364;2023-07-29T18:13:51;98839.34;;;22.94;72.38
48027;BME280;50714;49.208;5.364;2023-07-29T18:23:52;98872.75;;;22.87;73.39
48027;BME280;50714;49.208;5.364;2023-07-29T18:33:52;98898.97;;;22.42;71.65
48027;BME280;50714;49.208;5.364;2023-07-29T18:43:52;98901.75;;;21.89;72.48
48027;BME280;50714;49.208;5.364;2023-07-29T18:53:57;98889.41;;;21.63;73.55
48027;BME280;50714;49.208;5.364;2023-07-29T19:03:58;98895.69;;;21.39;74.77
48027;BME280;50714;49.208;5.364;2023-07-29T19:13:59;98900.13;;;21.30;75.57
48027;BME280;50714;49.208;5.364;2023-07-29T19:23:59;98906.50;;;21.26;76.96
48027;BME280;50714;49.208;5.364;2023-07-29T19:33:59;98916.97;;;21.24;78.23
48027;BME280;50714;49.208;5.364;2023-07-29T19:44:00;98889.31;;;21.10;79.50
48027;BME280;50714;49.208;5.364;2023-07-29T19:54:00;98910.81;;;20.98;81.18
48027;BME280;50714;49.208;5.364;2023-07-29T20:04:00;98938.31;;;20.88;83.30
48027;BME280;50714;49.208;5.364;2023-07-29T20:14:01;98942.78;;;20.73;84.06
48027;BME280;50714;49.208;5.364;2023-07-29T20:24:01;98960.34;;;20.72;83.39
48027;BME280;50714;49.208;5.364;2023-07-29T20:34:01;98957.09;;;20.65;84.63
48027;BME280;50714;49.208;5.364;2023-07-29T20:44:02;98952.75;;;20.54;85.65
48027;BME280;50714;49.208;5.364;2023-07-29T20:54:03;98972.25;;;20.48;85.73
48027;BME280;50714;49.208;5.364;2023-07-29T21:04:04;98981.03;;;20.39;85.85
48027;BME280;50714;49.208;5.364;2023-07-29T21:14:04;98988.69;;;20.32;86.08
48027;BME280;50714;49.208;5.364;2023-07-29T21:24:05;98989.56;;;20.23;87.15
48027;BME280;50714;49.208;5.364;2023-07-29T21:34:05;98988.78;;;20.12;87.76
48027;BME280;50714;49.208;5.364;2023-07-29T21:44:05;98988.81;;;20.02;88.56
48027;BME280;50714;49.208;5.364;2023-07-29T21:54:06;99002.50;;;19.97;89.73
48027;BME280;50714;49.208;5.364;2023-07-29T22:04:07;99000.31;;;19.94;89.56
48027;BME280;50714;49.208;5.364;2023-07-29T22:14:07;99019.22;;;19.85;89.67
48027;BME280;50714;49.208;5.364;2023-07-29T22:24:07;99013.78;;;19.80;89.86
48027;BME280;50714;49.208;5.364;2023-07-29T22:34:07;99018.41;;;19.64;90.25
48027;BME280;50714;49.208;5.364;2023-07-29T22:44:08;99023.63;;;19.51;90.77
48027;BME280;50714;49.208;5.364;2023-07-29T22:54:08;99024.41;;;19.46;91.07
48027;BME280;50714;49.208;5.364;2023-07-29T23:04:09;99047.13;;;19.36;90.96
48027;BME280;50714;49.208;5.364;2023-07-29T23:14:09;99060.19;;;19.19;91.38
48027;BME280;50714;49.208;5.364;2023-07-29T23:24:09;99073.03;;;19.14;90.78
48027;BME280;50714;49.208;5.364;2023-07-29T23:34:10;99070.81;;;19.00;90.98
48027;BME280;50714;49.208;5.364;2023-07-29T23:44:12;99066.41;;;18.94;90.63
48027;BME280;50714;49.208;5.364;2023-07-29T23:54:12;99072.44;;;18.86;90.96
